sensor_id;sensor_type;location;lat;lon;timestamp;pressure;altitude;pressure_sealevel;temperature;humidity
12664;BME280;6396;58.490;15.528;2023-04-27T00:00:29;100001.31;;;3.63;100.00
12664;BME280;6396;58.490;15.528;2023-04-27T00:02:58;99889.44;;;3.27;100.00
12664;BME280;6396;58.490;15.528;2023-04-27T00:05:29;99718.50;;;1.90;100.00
12664;BME280;6396;58.490;15.528;2023-04-27T00:08:00;99899.06;;;3.17;100.00
12664;BME280;6396;58.490;15.528;2023-04-27T00:10:27;99982.16;;;3.64;100.00
12664;BME280;6396;58.490;15.528;2023-04-27T00:12:54;99920.75;;;3.22;100.00
12664;BME280;6396;58.490;15.528;2023-04-27T00:15:21;99977.81;;;3.65;100.00
12664;BME280;6396;58.490;15.528;2023-04-27T00:17:52;99989.16;;;3.59;100.00
12664;BME280;6396;58.490;15.528;2023-04-27T00:20:19;99983.97;;;3.55;100.00
12664;BME280;6396;58.490;15.528;2023-04-27T00:22:46;99996.16;;;3.54;100.00
12664;BME280;6396;58.490;15.528;2023-04-27T00:25:14;99987.50;;;3.51;100.00
12664;BME280;6396;58.490;15.528;2023-04-27T00:27:43;99986.53;;;3.59;100.00
12664;BME280;6396;58.490;15.528;2023-04-27T00:30:10;99613.88;;;1.41;100.00
12664;BME280;6396;58.490;15.528;2023-04-27T00:32:38;99906.19;;;2.99;100.00
12664;BME280;6396;58.490;15.528;2023-04-27T00:35:07;99990.78;;;3.72;100.00
12664;BME280;6396;58.490;15.528;2023-04-27T00:37:34;99982.03;;;3.76;100.00
12664;BME280;6396;58.490;15.528;2023-04-27T00:40:03;99981.22;;;3.71;100.00
12664;BME280;6396;58.490;15.528;2023-04-27T00:42:39;99979.47;;;3.73;100.00
12664;BME280;6396;58.490;15.528;2023-04-27T00:45:07;99548.19;;;1.15;100.00
12664;BME280;6396;58.490;15.528;2023-04-27T00:47:38;99990.00;;;3.63;100.00
12664;BME280;6396;58.490;15.528;2023-04-27T00:50:06;99948.53;;;3.29;100.00
12664;BME280;6396;58.490;15.528;2023-04-27T00:52:35;99979.63;;;3.57;100.00
12664;BME280;6396;58.490;15.528;2023-04-27T00:55:03;99958.84;;;3.45;100.00
12664;BME280;6396;58.490;15.528;2023-04-27T00:57:35;99893.09;;;3.03;100.00
12664;BME280;6396;58.490;15.528;2023-04-27T01:00:06;100003.03;;;3.63;100.00
12664;BME280;6396;58.490;15.528;2023-04-27T01:02:37;99981.41;;;3.49;100.00
12664;BME280;6396;58.490;15.528;2023-04-27T01:05:06;99977.94;;;3.51;100.00
12664;BME280;6396;58.490;15.528;2023-04-27T01:07:36;99923.41;;;3.18;100.00
12664;BME280;6396;58.490;15.528;2023-04-27T01:10:03;99931.16;;;3.24;100.00
12664;BME280;6396;58.490;15.528;2023-04-27T01:12:31;99982.25;;;3.52;100.00
12664;BME280;6396;58.490;15.528;2023-04-27T01:14:58;99970.13;;;3.48;100.00
12664;BME280;6396;58.490;15.528;2023-04-27T01:17:28;99934.69;;;3.20;100.00
12664;BME280;6396;58.490;15.528;2023-04-27T01:19:55;99899.28;;;2.87;100.00
12664;BME280;6396;58.490;15.528;2023-04-27T01:22:25;99971.00;;;3.47;100.00
12664;BME280;6396;58.490;15.528;2023-04-27T01:24:53;99978.88;;;3.42;100.00
12664;BME280;6396;58.490;15.528;2023-04-27T01:27:21;99985.91;;;3.30;100.00
12664;BME280;6396;58.490;15.528;2023-04-27T01:29:47;99976.31;;;3.35;100.00
12664;BME280;6396;58.490;15.528;2023-04-27T01:32:14;99978.97;;;3.27;100.00
12664;BME280;6396;58.490;15.528;2023-04-27T01:34:41;100052.00;;;3.32;100.00
12664;BME280;6396;58.490;15.528;2023-04-27T01:37:08;99975.44;;;3.33;100.00
12664;BME280;6396;58.490;15.528;2023-04-27T01:39:35;99852.63;;;2.53;100.00
12664;BME280;6396;58.490;15.528;2023-04-27T01:42:03;99982.41;;;3.31;100.00
12664;BME280;6396;58.490;15.528;2023-04-27T01:44:31;99911.47;;;2.87;100.00
12664;BME280;6396;58.490;15.528;2023-04-27T01:46:58;99983.25;;;3.36;100.00
12664;BME280;6396;58.490;15.528;2023-04-27T01:49:25;99770.44;;;2.05;100.00
12664;BME280;6396;58.490;15.528;2023-04-27T01:51:52;99850.06;;;2.45;100.00
12664;BME280;6396;58.490;15.528;2023-04-27T01:54:19;99972.97;;;3.13;100.00
12664;BME280;6396;58.490;15.528;2023-04-27T01:56:47;99671.06;;;1.43;100.00
12664;BME280;6396;58.490;15.528;2023-04-27T01:59:15;99807.56;;;2.39;100.00
12664;BME280;6396;58.490;15.528;2023-04-27T02:01:48;99866.34;;;2.77;100.00
12664;BME280;6396;58.490;15.528;2023-04-27T02:04:15;99730.66;;;1.86;100.00
12664;BME280;6396;58.490;15.528;2023-04-27T02:06:43;99971.28;;;3.11;100.00
12664;BME280;6396;58.490;15.528;2023-04-27T02:09:10;99998.91;;;3.36;100.00
12664;BME280;6396;58.490;15.528;2023-04-27T02:11:37;99632.13;;;1.31;100.00
12664;BME280;6396;58.490;15.528;2023-04-27T02:14:03;99980.63;;;3.36;100.00
12664;BME280;6396;58.490;15.528;2023-04-27T02:16:32;99981.47;;;3.39;100.00
12664;BME280;6396;58.490;15.528;2023-04-27T02:18:58;99977.13;;;3.41;100.00
12664;BME280;6396;58.490;15.528;2023-04-27T02:21:27;99959.91;;;3.19;100.00
12664;BME280;6396;58.490;15.528;2023-04-27T02:23:53;99902.91;;;2.67;100.00
12664;BME280;6396;58.490;15.528;2023-04-27T02:26:21;99986.75;;;3.33;100.00
12664;BME280;6396;58.490;15.528;2023-04-27T02:28:53;100059.81;;;3.32;100.00
12664;BME280;6396;58.490;15.528;2023-04-27T02:31:20;99939.28;;;2.82;100.00
12664;BME280;6396;58.490;15.528;2023-04-27T02:33:48;99996.31;;;3.37;100.00
12664;BME280;6396;58.490;15.528;2023-04-27T02:36:15;99971.19;;;3.21;100.00
12664;BME280;6396;58.490;15.528;2023-04-27T02:38:43;99990.16;;;3.41;100.00
12664;BME280;6396;58.490;15.528;2023-04-27T02:41:09;99992.81;;;3.38;100.00
12664;BME280;6396;58.490;15.528;2023-04-27T02:43:37;99977.34;;;3.08;100.00
12664;BME280;6396;58.490;15.528;2023-04-27T02:46:04;100052.19;;;2.97;100.00
12664;BME280;6396;58.490;15.528;2023-04-27T02:48:31;99994.66;;;3.21;100.00
12664;BME280;6396;58.490;15.528;2023-04-27T02:51:02;99925.38;;;2.86;100.00
12664;BME280;6396;58.490;15.528;2023-04-27T02:53:29;99790.41;;;2.01;100.00
12664;BME280;6396;58.490;15.528;2023-04-27T02:55:56;99618.38;;;1.07;100.00
12664;BME280;6396;58.490;15.528;2023-04-27T02:58:24;99679.78;;;1.33;100.00
12664;BME280;6396;58.490;15.528;2023-04-27T03:00:53;100032.81;;;3.34;100.00
12664;BME280;6396;58.490;15.528;2023-04-27T03:03:20;100007.63;;;3.35;100.00
12664;BME280;6396;58.490;15.528;2023-04-27T03:05:47;100005.88;;;3.32;100.00
12664;BME280;6396;58.490;15.528;2023-04-27T03:08:16;100003.28;;;3.34;100.00
12664;BME280;6396;58.490;15.528;2023-04-27T03:10:43;99969.59;;;3.04;100.00
12664;BME280;6396;58.490;15.528;2023-04-27T03:13:10;100024.09;;;3.38;100.00
12664;BME280;6396;58.490;15.528;2023-04-27T03:15:37;99973.81;;;3.20;100.00
12664;BME280;6396;58.490;15.528;2023-04-27T03:18:04;99837.97;;;2.35;100.00
12664;BME280;6396;58.490;15.528;2023-04-27T03:20:31;99887.38;;;2.52;100.00
12664;BME280;6396;58.490;15.528;2023-04-27T03:23:00;99808.56;;;2.13;100.00
12664;BME280;6396;58.490;15.528;2023-04-27T03:25:28;100014.63;;;3.27;100.00
12664;BME280;6396;58.490;15.528;2023-04-27T03:27:56;99833.78;;;2.11;100.00
12664;BME280;6396;58.490;15.528;2023-04-27T03:30:23;100080.81;;;3.09;100.00
12664;BME280;6396;58.490;15.528;2023-04-27T03:32:50;99973.13;;;2.89;100.00
12664;BME280;6396;58.490;15.528;2023-04-27T03:35:18;99901.44;;;2.16;100.00
12664;BME280;6396;58.490;15.528;2023-04-27T03:37:46;99966.25;;;2.79;100.00
12664;BME280;6396;58.490;15.528;2023-04-27T03:40:13;100014.75;;;3.07;100.00
12664;BME280;6396;58.490;15.528;2023-04-27T03:42:41;100020.81;;;3.11;100.00
12664;BME280;6396;58.490;15.528;2023-04-27T03:45:09;100018.25;;;3.02;100.00
12664;BME280;6396;58.490;15.528;2023-04-27T03:47:43;99828.63;;;1.98;100.00
12664;BME280;6396;58.490;15.528;2023-04-27T03:50:10;99724.88;;;1.24;100.00
12664;BME280;6396;58.490;15.528;2023-04-27T03:52:43;100020.84;;;3.05;100.00
12664;BME280;6396;58.490;15.528;2023-04-27T03:55:10;99997.50;;;2.84;100.00
12664;BME280;6396;58.490;15.528;2023-04-27T03:57:38;99911.75;;;2.39;100.00
12664;BME280;6396;58.490;15.528;2023-04-27T04:00:07;100034.81;;;2.89;100.00
12664;BME280;6396;58.490;15.528;2023-04-27T04:02:36;99955.91;;;2.61;100.00
12664;BME280;6396;58.490;15.528;2023-04-27T04:05:03;100025.97;;;3.20;100.00
12664;BME280;6396;58.490;15.528;2023-04-27T04:07:30;99948.94;;;2.65;100.00
12664;BME280;6396;58.490;15.528;2023-04-27T04:09:57;100036.47;;;3.11;100.00
12664;BME280;6396;58.490;15.528;2023-04-27T04:12:26;100039.06;;;3.11;100.00
12664;BME280;6396;58.490;15.528;2023-04-27T04:14:53;99994.88;;;2.87;100.00
12664;BME280;6396;58.490;15.528;2023-04-27T04:17:27;100034.66;;;3.19;100.00
12664;BME280;6396;58.490;15.528;2023-04-27T04:19:53;99883.16;;;2.25;100.00
12664;BME280;6396;58.490;15.528;2023-04-27T04:22:20;99903.06;;;2.43;100.00
12664;BME280;6396;58.490;15.528;2023-04-27T04:24:47;100038.94;;;3.27;100.00
12664;BME280;6396;58.490;15.528;2023-04-27T04:27:15;100068.50;;;3.34;100.00
12664;BME280;6396;58.490;15.528;2023-04-27T04:29:42;99940.19;;;2.81;100.00
12664;BME280;6396;58.490;15.528;2023-04-27T04:32:09;99899.44;;;2.66;100.00
12664;BME280;6396;58.490;15.528;2023-04-27T04:34:40;99761.03;;;1.84;100.00
12664;BME280;6396;58.490;15.528;2023-04-27T04:37:10;99813.78;;;2.18;100.00
12664;BME280;6396;58.490;15.528;2023-04-27T04:39:37;100048.28;;;3.63;100.00
12664;BME280;6396;58.490;15.528;2023-04-27T04:42:17;100029.22;;;3.55;100.00
12664;BME280;6396;58.490;15.528;2023-04-27T04:44:45;100048.22;;;3.69;100.00
12664;BME280;6396;58.490;15.528;2023-04-27T04:47:14;100043.88;;;3.70;100.00
12664;BME280;6396;58.490;15.528;2023-04-27T04:49:43;100046.53;;;3.62;100.00
12664;BME280;6396;58.490;15.528;2023-04-27T04:52:10;100071.69;;;3.74;100.00
12664;BME280;6396;58.490;15.528;2023-04-27T04:54:37;99922.75;;;2.86;100.00
12664;BME280;6396;58.490;15.528;2023-04-27T04:57:04;100067.41;;;3.62;100.00
12664;BME280;6396;58.490;15.528;2023-04-27T04:59:32;99622.59;;;1.33;100.00
12664;BME280;6396;58.490;15.528;2023-04-27T05:01:59;100048.91;;;3.92;100.00
12664;BME280;6396;58.490;15.528;2023-04-27T05:04:26;100047.16;;;3.94;100.00
12664;BME280;6396;58.490;15.528;2023-04-27T05:07:03;99907.75;;;3.18;100.00
12664;BME280;6396;58.490;15.528;2023-04-27T05:09:30;100048.84;;;4.00;100.00
12664;BME280;6396;58.490;15.528;2023-04-27T05:11:57;99919.03;;;3.23;100.00
12664;BME280;6396;58.490;15.528;2023-04-27T05:14:26;100059.22;;;4.09;100.00
12664;BME280;6396;58.490;15.528;2023-04-27T05:16:54;99903.47;;;3.11;100.00
12664;BME280;6396;58.490;15.528;2023-04-27T05:19:21;100080.91;;;4.17;100.00
12664;BME280;6396;58.490;15.528;2023-04-27T05:21:49;100033.97;;;4.06;100.00
12664;BME280;6396;58.490;15.528;2023-04-27T05:24:18;99918.03;;;3.36;100.00
12664;BME280;6396;58.490;15.528;2023-04-27T05:26:45;100066.78;;;4.34;100.00
12664;BME280;6396;58.490;15.528;2023-04-27T05:29:12;100029.56;;;4.13;100.00
12664;BME280;6396;58.490;15.528;2023-04-27T05:31:38;100092.69;;;4.57;100.00
12664;BME280;6396;58.490;15.528;2023-04-27T05:34:06;100062.13;;;4.62;100.00
12664;BME280;6396;58.490;15.528;2023-04-27T05:36:34;99947.09;;;3.91;100.00
12664;BME280;6396;58.490;15.528;2023-04-27T05:39:01;100060.34;;;4.66;100.00
12664;BME280;6396;58.490;15.528;2023-04-27T05:41:29;100064.59;;;4.74;100.00
12664;BME280;6396;58.490;15.528;2023-04-27T05:43:56;99822.34;;;3.42;100.00
12664;BME280;6396;58.490;15.528;2023-04-27T05:46:23;100057.44;;;4.93;100.00
12664;BME280;6396;58.490;15.528;2023-04-27T05:48:52;100060.84;;;4.98;100.00
12664;BME280;6396;58.490;15.528;2023-04-27T05:51:19;100085.13;;;5.09;100.00
12664;BME280;6396;58.490;15.528;2023-04-27T05:53:46;100070.19;;;5.17;100.00
12664;BME280;6396;58.490;15.528;2023-04-27T05:56:13;100070.06;;;5.26;100.00
12664;BME280;6396;58.490;15.528;2023-04-27T05:58:41;100080.44;;;5.33;100.00
12664;BME280;6396;58.490;15.528;2023-04-27T06:01:08;100032.78;;;5.10;100.00
12664;BME280;6396;58.490;15.528;2023-04-27T06:03:35;99923.66;;;4.57;100.00
12664;BME280;6396;58.490;15.528;2023-04-27T06:06:01;99776.78;;;3.71;100.00
12664;BME280;6396;58.490;15.528;2023-04-27T06:08:28;99913.38;;;4.45;100.00
12664;BME280;6396;58.490;15.528;2023-04-27T06:10:55;100066.91;;;5.62;100.00
12664;BME280;6396;58.490;15.528;2023-04-27T06:13:22;100057.56;;;5.44;100.00
12664;BME280;6396;58.490;15.528;2023-04-27T06:15:50;99911.94;;;4.86;100.00
12664;BME280;6396;58.490;15.528;2023-04-27T06:18:17;100047.53;;;5.75;100.00
12664;BME280;6396;58.490;15.528;2023-04-27T06:20:44;100118.03;;;5.90;100.00
12664;BME280;6396;58.490;15.528;2023-04-27T06:23:11;100085.72;;;5.91;100.00
12664;BME280;6396;58.490;15.528;2023-04-27T06:25:38;100068.00;;;6.05;100.00
12664;BME280;6396;58.490;15.528;2023-04-27T06:28:24;100067.91;;;6.11;100.00
12664;BME280;6396;58.490;15.528;2023-04-27T06:30:53;100070.34;;;6.22;100.00
12664;BME280;6396;58.490;15.528;2023-04-27T06:33:21;100007.22;;;5.85;100.00
12664;BME280;6396;58.490;15.528;2023-04-27T06:35:48;99953.47;;;5.60;100.00
12664;BME280;6396;58.490;15.528;2023-04-27T06:38:15;100068.16;;;6.45;100.00
12664;BME280;6396;58.490;15.528;2023-04-27T06:40:42;100098.59;;;6.53;100.00
12664;BME280;6396;58.490;15.528;2023-04-27T06:43:11;99998.09;;;6.06;100.00
12664;BME280;6396;58.490;15.528;2023-04-27T06:45:38;99964.81;;;6.12;100.00
12664;BME280;6396;58.490;15.528;2023-04-27T06:48:06;100077.72;;;6.93;100.00
12664;BME280;6396;58.490;15.528;2023-04-27T06:50:36;99546.56;;;4.01;100.00
12664;BME280;6396;58.490;15.528;2023-04-27T06:53:03;100068.56;;;7.52;100.00
12664;BME280;6396;58.490;15.528;2023-04-27T06:55:30;100062.09;;;7.28;100.00
12664;BME280;6396;58.490;15.528;2023-04-27T06:57:57;100135.53;;;8.09;100.00
12664;BME280;6396;58.490;15.528;2023-04-27T07:00:24;99748.97;;;6.88;100.00
12664;BME280;6396;58.490;15.528;2023-04-27T07:02:51;100070.75;;;10.43;100.00
12664;BME280;6396;58.490;15.528;2023-04-27T07:05:20;100039.09;;;11.60;100.00
12664;BME280;6396;58.490;15.528;2023-04-27T07:07:47;100071.34;;;12.54;100.00
12664;BME280;6396;58.490;15.528;2023-04-27T07:10:14;100095.72;;;13.02;92.53
12664;BME280;6396;58.490;15.528;2023-04-27T07:12:41;100071.72;;;13.05;85.38
12664;BME280;6396;58.490;15.528;2023-04-27T07:15:08;100048.03;;;13.77;73.41
12664;BME280;6396;58.490;15.528;2023-04-27T07:17:38;99927.97;;;13.72;67.12
12664;BME280;6396;58.490;15.528;2023-04-27T07:20:06;100058.88;;;14.61;68.43
12664;BME280;6396;58.490;15.528;2023-04-27T07:22:37;100057.28;;;14.74;59.25
12664;BME280;6396;58.490;15.528;2023-04-27T07:25:05;100069.47;;;14.78;60.07
12664;BME280;6396;58.490;15.528;2023-04-27T07:27:32;100054.75;;;15.20;60.68
12664;BME280;6396;58.490;15.528;2023-04-27T07:30:00;99806.94;;;14.19;59.92
12664;BME280;6396;58.490;15.528;2023-04-27T07:32:26;100065.78;;;16.39;57.34
12664;BME280;6396;58.490;15.528;2023-04-27T07:34:54;100014.59;;;16.48;54.44
12664;BME280;6396;58.490;15.528;2023-04-27T07:37:21;100072.72;;;15.96;52.77
12664;BME280;6396;58.490;15.528;2023-04-27T07:39:50;100064.13;;;15.44;51.64
12664;BME280;6396;58.490;15.528;2023-04-27T07:42:17;100088.06;;;15.44;52.62
12664;BME280;6396;58.490;15.528;2023-04-27T07:44:46;99715.59;;;12.89;48.62
12664;BME280;6396;58.490;15.528;2023-04-27T07:47:14;99941.09;;;12.83;51.56
12664;BME280;6396;58.490;15.528;2023-04-27T07:49:44;100078.66;;;13.84;51.41
12664;BME280;6396;58.490;15.528;2023-04-27T07:52:11;100094.75;;;13.23;51.65
12664;BME280;6396;58.490;15.528;2023-04-27T07:54:39;99979.63;;;12.72;51.63
12664;BME280;6396;58.490;15.528;2023-04-27T07:57:08;100046.00;;;12.07;50.71
12664;BME280;6396;58.490;15.528;2023-04-27T07:59:42;100025.16;;;12.19;50.19
12664;BME280;6396;58.490;15.528;2023-04-27T08:02:08;100101.91;;;12.41;54.14
12664;BME280;6396;58.490;15.528;2023-04-27T08:04:58;100109.06;;;11.96;54.51
12664;BME280;6396;58.490;15.528;2023-04-27T08:07:26;100103.75;;;12.39;55.36
12664;BME280;6396;58.490;15.528;2023-04-27T08:09:53;100123.06;;;12.83;52.15
12664;BME280;6396;58.490;15.528;2023-04-27T08:12:21;100064.59;;;12.47;53.31
12664;BME280;6396;58.490;15.528;2023-04-27T08:14:48;100113.50;;;12.17;54.49
12664;BME280;6396;58.490;15.528;2023-04-27T08:17:15;99916.72;;;10.68;56.30
12664;BME280;6396;58.490;15.528;2023-04-27T08:19:44;99763.75;;;10.65;54.81
12664;BME280;6396;58.490;15.528;2023-04-27T08:22:11;100096.16;;;14.05;51.86
12664;BME280;6396;58.490;15.528;2023-04-27T08:24:38;100110.19;;;14.44;50.42
12664;BME280;6396;58.490;15.528;2023-04-27T08:27:05;99975.41;;;13.06;52.33
12664;BME280;6396;58.490;15.528;2023-04-27T08:29:34;100119.44;;;14.71;50.88
12664;BME280;6396;58.490;15.528;2023-04-27T08:32:02;100106.06;;;15.88;49.31
12664;BME280;6396;58.490;15.528;2023-04-27T08:34:29;100060.53;;;16.37;49.02
12664;BME280;6396;58.490;15.528;2023-04-27T08:36:56;100083.00;;;15.71;47.96
12664;BME280;6396;58.490;15.528;2023-04-27T08:39:25;100103.81;;;16.27;46.62
12664;BME280;6396;58.490;15.528;2023-04-27T08:41:53;100033.59;;;15.34;47.74
12664;BME280;6396;58.490;15.528;2023-04-27T08:44:20;99695.84;;;11.88;47.76
12664;BME280;6396;58.490;15.528;2023-04-27T08:46:49;100111.97;;;13.33;48.23
12664;BME280;6396;58.490;15.528;2023-04-27T08:49:16;100118.38;;;13.67;49.43
12664;BME280;6396;58.490;15.528;2023-04-27T08:51:43;100115.25;;;14.48;49.87
12664;BME280;6396;58.490;15.528;2023-04-27T08:54:11;100110.44;;;14.39;48.45
12664;BME280;6396;58.490;15.528;2023-04-27T08:56:38;100137.41;;;13.19;48.44
12664;BME280;6396;58.490;15.528;2023-04-27T08:59:12;100154.75;;;13.06;48.80
12664;BME280;6396;58.490;15.528;2023-04-27T09:01:42;100021.88;;;13.69;49.37
12664;BME280;6396;58.490;15.528;2023-04-27T09:04:13;99982.34;;;13.63;48.90
12664;BME280;6396;58.490;15.528;2023-04-27T09:06:41;99867.72;;;12.85;48.94
12664;BME280;6396;58.490;15.528;2023-04-27T09:09:20;100022.53;;;13.91;44.80
12664;BME280;6396;58.490;15.528;2023-04-27T09:11:47;99922.06;;;14.18;46.76
12664;BME280;6396;58.490;15.528;2023-04-27T09:14:19;100114.91;;;15.73;44.16
12664;BME280;6396;58.490;15.528;2023-04-27T09:16:52;100008.84;;;15.49;42.48
12664;BME280;6396;58.490;15.528;2023-04-27T09:19:27;100126.94;;;16.71;40.92
12664;BME280;6396;58.490;15.528;2023-04-27T09:22:04;100122.09;;;17.22;40.66
12664;BME280;6396;58.490;15.528;2023-04-27T09:24:34;100122.53;;;17.58;42.37
12664;BME280;6396;58.490;15.528;2023-04-27T09:27:02;100112.31;;;17.50;42.33
12664;BME280;6396;58.490;15.528;2023-04-27T09:29:33;100112.22;;;17.66;40.80
12664;BME280;6396;58.490;15.528;2023-04-27T09:32:00;99959.84;;;16.28;43.07
12664;BME280;6396;58.490;15.528;2023-04-27T09:34:38;100095.28;;;15.58;40.64
12664;BME280;6396;58.490;15.528;2023-04-27T09:37:05;99890.78;;;13.73;44.47
12664;BME280;6396;58.490;15.528;2023-04-27T09:39:34;100126.78;;;15.33;44.39
12664;BME280;6396;58.490;15.528;2023-04-27T09:42:02;100082.00;;;15.25;42.51
12664;BME280;6396;58.490;15.528;2023-04-27T09:44:33;100078.94;;;15.16;41.33
12664;BME280;6396;58.490;15.528;2023-04-27T09:47:00;100077.47;;;15.10;40.13
12664;BME280;6396;58.490;15.528;2023-04-27T09:49:28;100091.72;;;15.90;42.13
12664;BME280;6396;58.490;15.528;2023-04-27T09:51:56;100004.88;;;15.72;40.83
12664;BME280;6396;58.490;15.528;2023-04-27T09:54:26;100105.78;;;16.98;41.00
12664;BME280;6396;58.490;15.528;2023-04-27T09:57:02;100104.50;;;16.76;37.58
12664;BME280;6396;58.490;15.528;2023-04-27T09:59:43;99916.16;;;15.42;39.38
12664;BME280;6396;58.490;15.528;2023-04-27T10:02:15;100047.88;;;15.96;40.03
12664;BME280;6396;58.490;15.528;2023-04-27T10:05:07;100111.78;;;16.11;38.66
12664;BME280;6396;58.490;15.528;2023-04-27T10:07:41;100032.59;;;15.84;37.29
12664;BME280;6396;58.490;15.528;2023-04-27T10:10:21;99960.06;;;15.64;37.53
12664;BME280;6396;58.490;15.528;2023-04-27T10:12:55;100115.34;;;16.87;38.95
12664;BME280;6396;58.490;15.528;2023-04-27T10:15:26;100001.25;;;16.78;38.88
12664;BME280;6396;58.490;15.528;2023-04-27T10:17:54;100112.03;;;16.97;38.74
12664;BME280;6396;58.490;15.528;2023-04-27T10:20:30;100121.50;;;16.28;38.03
12664;BME280;6396;58.490;15.528;2023-04-27T10:23:03;100040.78;;;15.65;38.70
12664;BME280;6396;58.490;15.528;2023-04-27T10:25:36;100124.22;;;16.42;38.29
12664;BME280;6396;58.490;15.528;2023-04-27T10:28:04;100099.00;;;16.02;41.18
12664;BME280;6396;58.490;15.528;2023-04-27T10:30:33;100133.75;;;15.35;40.99
12664;BME280;6396;58.490;15.528;2023-04-27T10:33:04;100137.88;;;14.91;40.74
12664;BME280;6396;58.490;15.528;2023-04-27T10:35:32;100171.41;;;15.11;41.96
12664;BME280;6396;58.490;15.528;2023-04-27T10:38:14;100141.41;;;14.75;41.83
12664;BME280;6396;58.490;15.528;2023-04-27T10:40:43;100146.84;;;14.72;41.97
12664;BME280;6396;58.490;15.528;2023-04-27T10:43:17;100144.72;;;15.29;42.35
12664;BME280;6396;58.490;15.528;2023-04-27T10:45:43;100004.25;;;14.55;42.21
12664;BME280;6396;58.490;15.528;2023-04-27T10:48:12;99878.63;;;14.19;40.78
12664;BME280;6396;58.490;15.528;2023-04-27T10:50:40;100143.09;;;16.23;41.00
12664;BME280;6396;58.490;15.528;2023-04-27T10:53:11;100142.00;;;16.57;40.63
12664;BME280;6396;58.490;15.528;2023-04-27T10:55:39;100123.25;;;16.58;40.10
12664;BME280;6396;58.490;15.528;2023-04-27T10:58:13;100002.28;;;15.86;38.32
12664;BME280;6396;58.490;15.528;2023-04-27T11:00:40;100147.69;;;16.96;38.36
12664;BME280;6396;58.490;15.528;2023-04-27T11:03:12;100148.81;;;16.62;38.40
12664;BME280;6396;58.490;15.528;2023-04-27T11:05:41;100158.44;;;16.03;38.18
12664;BME280;6396;58.490;15.528;2023-04-27T11:08:13;100103.44;;;15.38;39.32
12664;BME280;6396;58.490;15.528;2023-04-27T11:10:42;100161.94;;;15.39;40.77
12664;BME280;6396;58.490;15.528;2023-04-27T11:13:11;100167.50;;;15.18;39.98
12664;BME280;6396;58.490;15.528;2023-04-27T11:15:43;100114.41;;;14.99;41.18
12664;BME280;6396;58.490;15.528;2023-04-27T11:18:21;100135.53;;;14.68;39.03
12664;BME280;6396;58.490;15.528;2023-04-27T11:20:49;99906.25;;;13.11;40.32
12664;BME280;6396;58.490;15.528;2023-04-27T11:23:31;99909.34;;;13.20;39.59
12664;BME280;6396;58.490;15.528;2023-04-27T11:26:08;100200.34;;;14.66;41.87
12664;BME280;6396;58.490;15.528;2023-04-27T11:28:43;100178.63;;;15.09;41.05
12664;BME280;6396;58.490;15.528;2023-04-27T11:31:11;100179.78;;;15.20;41.78
12664;BME280;6396;58.490;15.528;2023-04-27T11:33:38;100158.19;;;15.26;40.96
12664;BME280;6396;58.490;15.528;2023-04-27T11:36:15;100187.88;;;15.34;39.46
12664;BME280;6396;58.490;15.528;2023-04-27T11:38:46;100193.63;;;14.93;39.74
12664;BME280;6396;58.490;15.528;2023-04-27T11:41:13;99990.44;;;13.43;40.84
12664;BME280;6396;58.490;15.528;2023-04-27T11:43:42;100143.66;;;14.82;40.47
12664;BME280;6396;58.490;15.528;2023-04-27T11:46:10;99961.81;;;14.02;39.95
12664;BME280;6396;58.490;15.528;2023-04-27T11:48:39;99978.53;;;14.21;38.75
12664;BME280;6396;58.490;15.528;2023-04-27T11:51:08;99972.97;;;13.92;39.76
12664;BME280;6396;58.490;15.528;2023-04-27T11:53:38;100053.94;;;14.36;39.68
12664;BME280;6396;58.490;15.528;2023-04-27T11:56:09;100201.00;;;15.22;39.39
12664;BME280;6396;58.490;15.528;2023-04-27T11:58:38;100068.72;;;14.59;41.44
12664;BME280;6396;58.490;15.528;2023-04-27T12:01:05;100189.94;;;15.46;41.73
12664;BME280;6396;58.490;15.528;2023-04-27T12:03:32;100046.00;;;14.86;41.73
12664;BME280;6396;58.490;15.528;2023-04-27T12:05:59;100138.56;;;15.12;41.43
12664;BME280;6396;58.490;15.528;2023-04-27T12:08:28;100193.81;;;15.41;41.01
12664;BME280;6396;58.490;15.528;2023-04-27T12:10:55;100200.50;;;15.31;41.78
12664;BME280;6396;58.490;15.528;2023-04-27T12:13:25;100202.16;;;15.16;42.98
12664;BME280;6396;58.490;15.528;2023-04-27T12:15:52;100210.97;;;15.17;41.78
12664;BME280;6396;58.490;15.528;2023-04-27T12:18:19;100213.09;;;15.10;42.38
12664;BME280;6396;58.490;15.528;2023-04-27T12:20:46;100228.28;;;14.91;42.94
12664;BME280;6396;58.490;15.528;2023-04-27T12:23:12;100201.84;;;14.88;41.90
12664;BME280;6396;58.490;15.528;2023-04-27T12:25:45;100043.28;;;13.83;41.28
12664;BME280;6396;58.490;15.528;2023-04-27T12:28:12;100121.00;;;14.04;41.97
12664;BME280;6396;58.490;15.528;2023-04-27T12:30:45;100164.47;;;14.01;42.18
12664;BME280;6396;58.490;15.528;2023-04-27T12:33:11;100157.69;;;13.96;41.65
12664;BME280;6396;58.490;15.528;2023-04-27T12:35:44;100186.00;;;14.14;43.34
12664;BME280;6396;58.490;15.528;2023-04-27T12:38:11;99854.97;;;11.79;42.04
12664;BME280;6396;58.490;15.528;2023-04-27T12:40:40;100247.00;;;13.97;41.06
12664;BME280;6396;58.490;15.528;2023-04-27T12:43:07;100226.72;;;13.96;40.98
12664;BME280;6396;58.490;15.528;2023-04-27T12:45:38;100222.47;;;13.73;41.98
12664;BME280;6396;58.490;15.528;2023-04-27T12:48:07;100198.19;;;13.81;42.51
12664;BME280;6396;58.490;15.528;2023-04-27T12:50:36;100228.50;;;13.95;42.72
12664;BME280;6396;58.490;15.528;2023-04-27T12:53:03;100107.03;;;13.06;43.20
12664;BME280;6396;58.490;15.528;2023-04-27T12:55:29;100231.00;;;13.98;42.02
12664;BME280;6396;58.490;15.528;2023-04-27T12:57:56;99913.44;;;11.93;42.02
12664;BME280;6396;58.490;15.528;2023-04-27T13:00:23;100243.56;;;13.56;41.87
12664;BME280;6396;58.490;15.528;2023-04-27T13:02:50;100245.22;;;13.59;43.01